Time;durP1;ratioP1;P1;durP2;ratioP2;P2;SDS_P1;SDS_P2;PMS_P1;PMS_P2;Temp;Humidity;BMP_temperature;BMP_pressure;BME280_temperature;BME280_humidity;BME280_pressure;Samples;Min_cycle;Max_cycle;Signal;HPM_P1;HPM_P2
2023/10/03 00:00:22;;;;;;;6.60;4.13;;;17.60;55.00;;;;;;5004952;28;114077;-81
2023/10/03 00:02:55;;;;;;;6.55;3.42;;;17.50;55.20;;;;;;5006811;28;114279;-81
2023/10/03 00:05:28;;;;;;;9.73;4.20;;;17.40;55.60;;;;;;5004191;28;114995;-82
2023/10/03 00:07:56;;;;;;;6.78;4.00;;;17.40;55.40;;;;;;5004194;28;114620;-83
2023/10/03 00:10:23;;;;;;;8.57;4.25;;;17.40;56.30;;;;;;5022521;28;114028;-80
2023/10/03 00:12:51;;;;;;;7.68;4.10;;;17.50;55.90;;;;;;5023654;28;114052;-82
2023/10/03 00:15:21;;;;;;;6.55;4.20;;;17.60;56.20;;;;;;4971036;28;116399;-81
2023/10/03 00:17:49;;;;;;;7.47;4.03;;;17.60;56.10;;;;;;4978958;28;1252701;-80
2023/10/03 00:20:17;;;;;;;8.10;4.28;;;17.70;56.10;;;;;;5025233;28;114178;-81
2023/10/03 00:22:45;;;;;;;6.45;3.95;;;17.70;55.50;;;;;;5025336;28;114304;-81
2023/10/03 00:25:20;;;;;;;7.75;4.65;;;17.70;55.90;;;;;;5024113;28;115169;-82
2023/10/03 00:27:51;;;;;;;7.18;4.43;;;17.70;55.40;;;;;;5024182;28;114605;-80
2023/10/03 00:30:23;;;;;;;7.65;4.10;;;17.70;55.50;;;;;;5024442;28;114243;-81
2023/10/03 00:32:51;;;;;;;7.35;3.75;;;17.70;55.60;;;;;;5006520;28;114400;-82
2023/10/03 00:35:20;;;;;;;7.68;4.40;;;17.70;55.10;;;;;;5005855;28;115031;-82
2023/10/03 00:37:50;;;;;;;9.73;4.60;;;17.70;55.80;;;;;;4989123;28;114723;-82
2023/10/03 00:42:49;;;;;;;7.20;4.38;;;17.70;55.70;;;;;;4990052;28;114146;-83
2023/10/03 00:45:21;;;;;;;9.10;4.32;;;17.70;55.50;;;;;;4972544;28;115383;-81
2023/10/03 00:47:49;;;;;;;6.35;3.72;;;17.70;55.10;;;;;;5006331;28;114609;-82
2023/10/03 00:50:19;;;;;;;8.82;4.60;;;17.70;55.80;;;;;;5005869;28;114549;-83
2023/10/03 00:52:49;;;;;;;10.02;4.40;;;17.70;55.10;;;;;;4973335;28;114275;-83
2023/10/03 00:55:16;;;;;;;8.07;4.63;;;17.60;55.10;;;;;;4989457;28;116240;-82
2023/10/03 00:57:43;;;;;;;8.23;4.57;;;17.50;55.60;;;;;;5026101;28;115065;-84
2023/10/03 01:00:16;;;;;;;7.78;4.30;;;17.50;55.40;;;;;;4991842;28;114501;-84
2023/10/03 01:02:48;;;;;;;8.10;4.33;;;17.40;56.00;;;;;;5026730;28;114001;-84
2023/10/03 01:05:16;;;;;;;10.23;5.15;;;17.40;55.80;;;;;;5026139;28;115108;-83
2023/10/03 01:07:48;;;;;;;7.25;4.07;;;17.30;55.60;;;;;;5025889;28;114647;-83
2023/10/03 01:10:20;;;;;;;8.32;4.45;;;17.30;56.20;;;;;;5009562;28;114253;-82
2023/10/03 01:12:48;;;;;;;7.93;4.22;;;17.30;55.70;;;;;;5027094;28;114358;-81
2023/10/03 01:15:16;;;;;;;7.55;4.28;;;17.30;56.00;;;;;;4991705;28;115067;-82
2023/10/03 01:17:57;;;;;;;9.35;4.18;;;17.30;55.80;;;;;;4993010;28;114620;-83
2023/10/03 01:20:25;;;;;;;8.15;4.18;;;17.20;55.80;;;;;;5026574;28;114261;-83
2023/10/03 01:22:54;;;;;;;6.82;4.03;;;17.20;55.90;;;;;;5027363;28;114234;-82
2023/10/03 01:25:21;;;;;;;7.60;4.28;;;17.10;56.20;;;;;;4991942;28;114980;-83
2023/10/03 01:27:48;;;;;;;6.55;4.03;;;17.00;56.20;;;;;;5027003;28;115208;-81
2023/10/03 01:30:17;;;;;;;9.38;4.50;;;16.90;56.50;;;;;;5010310;28;114440;-81
2023/10/03 01:32:53;;;;;;;7.75;4.70;;;16.90;56.50;;;;;;5026976;28;114394;-82
2023/10/03 01:35:22;;;;;;;7.32;4.47;;;16.90;56.50;;;;;;5008821;28;114335;-81
2023/10/03 01:37:49;;;;;;;7.35;4.40;;;16.80;56.80;;;;;;5026985;28;115086;-82
2023/10/03 01:40:17;;;;;;;7.13;4.55;;;16.80;57.00;;;;;;4992505;28;114383;-80
2023/10/03 01:42:47;;;;;;;8.32;4.35;;;16.80;56.90;;;;;;5028718;28;114624;-82
2023/10/03 01:45:17;;;;;;;8.60;4.40;;;16.80;57.40;;;;;;5008116;28;114904;-83
2023/10/03 01:47:47;;;;;;;9.38;4.90;;;16.80;57.00;;;;;;5007695;28;114656;-82
2023/10/03 01:50:14;;;;;;;9.27;4.60;;;16.80;57.00;;;;;;5008190;28;114276;-81
2023/10/03 01:52:42;;;;;;;7.57;4.38;;;16.80;56.90;;;;;;4976210;28;114337;-82
2023/10/03 01:55:12;;;;;;;7.07;4.03;;;16.70;57.00;;;;;;5025470;28;114969;-82
2023/10/03 01:57:41;;;;;;;8.30;4.57;;;16.80;57.50;;;;;;5007451;28;114680;-83
2023/10/03 02:00:30;;;;;;;9.02;4.22;;;16.80;57.10;;;;;;5025879;28;114324;-81
2023/10/03 02:03:05;;;;;;;6.78;4.00;;;16.90;56.80;;;;;;4995327;28;114194;-82
2023/10/03 02:05:34;;;;;;;9.70;4.63;;;17.00;56.90;;;;;;4991105;27;114959;-81
2023/10/03 02:08:07;;;;;;;8.60;4.78;;;16.90;56.80;;;;;;5007045;28;115232;-82
2023/10/03 02:10:35;;;;;;;9.05;4.35;;;16.90;56.80;;;;;;5007976;28;114192;-82
2023/10/03 02:13:11;;;;;;;10.70;4.43;;;16.80;57.40;;;;;;4991485;28;114573;-82
2023/10/03 02:15:39;;;;;;;8.05;4.40;;;16.80;57.10;;;;;;5026246;28;115370;-82
2023/10/03 02:18:08;;;;;;;8.70;4.80;;;16.80;57.40;;;;;;5007722;28;115231;-82
2023/10/03 02:20:43;;;;;;;7.32;3.95;;;16.80;57.40;;;;;;5026300;28;114498;-82
2023/10/03 02:23:19;;;;;;;8.00;4.15;;;16.80;57.30;;;;;;5008423;28;114383;-81
2023/10/03 02:25:47;;;;;;;8.63;4.55;;;16.80;57.30;;;;;;5007464;28;114900;-83
2023/10/03 02:28:16;;;;;;;7.72;4.43;;;16.70;57.20;;;;;;5025733;28;114694;-81
2023/10/03 02:30:44;;;;;;;8.75;4.82;;;16.60;57.50;;;;;;5026227;28;114408;-81
2023/10/03 02:33:14;;;;;;;7.18;4.30;;;16.60;57.70;;;;;;5008502;28;114184;-82
2023/10/03 02:35:42;;;;;;;11.68;4.70;;;16.60;57.90;;;;;;5007165;28;115036;-80
2023/10/03 02:38:13;;;;;;;8.13;4.50;;;16.60;57.90;;;;;;5007396;28;114601;-82
2023/10/03 02:40:42;;;;;;;8.45;4.68;;;16.50;58.20;;;;;;4975942;28;114412;-83
2023/10/03 02:43:10;;;;;;;7.97;4.50;;;16.50;58.30;;;;;;4991397;28;114263;-83
2023/10/03 02:45:41;;;;;;;8.30;4.80;;;16.60;58.00;;;;;;5007652;28;115010;-83
2023/10/03 02:48:14;;;;;;;9.63;5.55;;;16.50;58.10;;;;;;5008485;28;114650;-83
2023/10/03 02:50:47;;;;;;;8.68;4.13;;;16.50;58.10;;;;;;4992260;28;114454;-82
2023/10/03 02:53:19;;;;;;;7.97;4.43;;;16.40;58.30;;;;;;5007799;28;114220;-82
2023/10/03 02:56:04;;;;;;;9.15;4.85;;;16.30;58.50;;;;;;5025376;28;115021;-83
2023/10/03 02:58:32;;;;;;;10.98;5.50;;;16.30;58.50;;;;;;5007582;28;114707;-82
2023/10/03 03:00:59;;;;;;;10.07;5.20;;;16.20;58.90;;;;;;5025208;28;114176;-83
2023/10/03 03:03:30;;;;;;;8.10;4.65;;;16.20;59.00;;;;;;5007686;28;114217;-83
2023/10/03 03:05:59;;;;;;;9.10;4.32;;;16.20;59.00;;;;;;5007359;28;114975;-82
2023/10/03 03:08:29;;;;;;;8.68;4.35;;;16.20;59.10;;;;;;5024436;28;114762;-82
2023/10/03 03:10:57;;;;;;;8.70;4.40;;;16.20;59.30;;;;;;4990552;28;114369;-82
2023/10/03 03:13:31;;;;;;;8.13;4.53;;;16.20;59.20;;;;;;4990892;28;114307;-82
2023/10/03 03:16:00;;;;;;;8.02;4.78;;;16.20;59.10;;;;;;5005883;28;115009;-83
2023/10/03 03:18:31;;;;;;;9.85;5.43;;;16.20;59.20;;;;;;4972920;28;115236;-83
2023/10/03 03:21:02;;;;;;;9.55;4.85;;;16.20;59.20;;;;;;4992091;28;114190;-82
2023/10/03 03:23:42;;;;;;;9.18;4.68;;;16.20;59.30;;;;;;4991927;28;114163;-83
2023/10/03 03:26:20;;;;;;;9.55;4.93;;;16.10;59.40;;;;;;4988819;28;117772;-83
2023/10/03 03:28:52;;;;;;;10.45;5.32;;;16.10;59.50;;;;;;5023833;28;116694;-83
2023/10/03 03:31:22;;;;;;;8.20;4.47;;;16.10;59.60;;;;;;4990406;28;114169;-81
2023/10/03 03:33:51;;;;;;;9.20;5.07;;;16.20;59.70;;;;;;5006767;28;114631;-82
2023/10/03 03:36:21;;;;;;;10.23;4.82;;;16.20;59.40;;;;;;5024056;28;117150;-82
2023/10/03 03:38:51;;;;;;;8.65;5.60;;;16.20;59.40;;;;;;5024105;28;114547;-83
2023/10/03 03:41:26;;;;;;;8.73;4.80;;;16.20;59.60;;;;;;5006678;28;114344;-82
2023/10/03 03:43:53;;;;;;;9.20;5.07;;;16.10;60.00;;;;;;5025816;28;114263;-82
2023/10/03 03:46:20;;;;;;;10.40;5.55;;;16.10;59.90;;;;;;5023374;28;114864;-83
2023/10/03 03:48:47;;;;;;;8.65;4.80;;;16.20;59.80;;;;;;5005570;28;114670;-81
2023/10/03 03:51:14;;;;;;;9.20;4.95;;;16.20;59.60;;;;;;5023422;28;114642;-82
2023/10/03 03:53:43;;;;;;;12.95;5.47;;;16.20;59.60;;;;;;5023968;28;114194;-82
2023/10/03 03:56:12;;;;;;;10.63;5.32;;;16.30;59.50;;;;;;5023206;28;115102;-83
2023/10/03 03:58:40;;;;;;;10.65;5.45;;;16.30;59.50;;;;;;4989802;28;114713;-81
2023/10/03 04:01:14;;;;;;;10.30;5.60;;;16.30;59.50;;;;;;4989674;28;114476;-81
2023/10/03 04:03:42;;;;;;;10.37;5.30;;;16.30;59.50;;;;;;5006023;28;114444;-81
2023/10/03 04:06:09;;;;;;;9.02;5.20;;;16.30;59.50;;;;;;5022437;28;115722;-82
2023/10/03 04:08:38;;;;;;;9.77;5.50;;;16.30;59.50;;;;;;5023270;28;115090;-82
2023/10/03 04:11:18;;;;;;;8.77;4.97;;;16.30;59.60;;;;;;5023415;28;114282;-83
2023/10/03 04:13:53;;;;;;;9.60;5.50;;;16.30;59.60;;;;;;5005622;28;114046;-81
2023/10/03 04:16:21;;;;;;;9.15;5.15;;;16.30;59.70;;;;;;5022244;28;114925;-81
2023/10/03 04:18:50;;;;;;;9.40;5.70;;;16.30;59.60;;;;;;5022504;28;114790;-82
2023/10/03 04:21:19;;;;;;;10.40;5.47;;;16.40;59.40;;;;;;5023607;28;114242;-83
2023/10/03 04:23:49;;;;;;;11.60;5.28;;;16.50;59.30;;;;;;5023649;28;114143;-82
2023/10/03 04:26:16;;;;;;;8.55;5.43;;;16.50;59.10;;;;;;5005508;28;115036;-83
2023/10/03 04:28:43;;;;;;;9.82;5.35;;;16.50;59.20;;;;;;5022752;27;114664;-83
2023/10/03 04:31:10;;;;;;;10.23;5.53;;;16.70;59.20;;;;;;5026450;28;114705;-81
2023/10/03 04:33:38;;;;;;;9.35;6.10;;;16.70;59.00;;;;;;5027436;28;114207;-81
2023/10/03 04:36:09;;;;;;;10.65;5.82;;;16.70;58.80;;;;;;5008114;28;116111;-83
2023/10/03 04:38:37;;;;;;;10.65;5.82;;;16.70;58.70;;;;;;5027162;28;114538;-82
2023/10/03 04:41:08;;;;;;;12.48;5.65;;;16.70;58.70;;;;;;5009503;28;114280;-82
2023/10/03 04:43:35;;;;;;;10.15;5.82;;;16.70;58.70;;;;;;5010001;28;114155;-83
2023/10/03 04:46:04;;;;;;;9.45;5.90;;;16.70;58.70;;;;;;5026844;28;115559;-83
2023/10/03 04:48:31;;;;;;;10.27;5.68;;;16.70;58.90;;;;;;5027184;28;115156;-82
2023/10/03 04:51:00;;;;;;;9.35;5.38;;;16.60;58.80;;;;;;5027783;28;114459;-83
2023/10/03 04:53:27;;;;;;;10.18;5.65;;;16.60;58.90;;;;;;5010102;28;114377;-83
2023/10/03 04:55:54;;;;;;;10.15;5.85;;;16.60;58.90;;;;;;5026677;28;114960;-83
2023/10/03 04:58:24;;;;;;;9.60;5.80;;;16.60;59.10;;;;;;5009365;28;114657;-84
2023/10/03 05:00:51;;;;;;;10.60;5.68;;;16.50;59.20;;;;;;5010059;28;114905;-82
2023/10/03 05:03:19;;;;;;;11.32;6.30;;;16.50;59.20;;;;;;4992689;28;114262;-83
2023/10/03 05:05:48;;;;;;;12.88;6.40;;;16.40;59.40;;;;;;5008174;28;115514;-81
2023/10/03 05:08:18;;;;;;;10.55;5.95;;;16.50;59.40;;;;;;5007755;28;117523;-81
2023/10/03 05:10:46;;;;;;;9.50;6.00;;;16.50;59.30;;;;;;5008830;28;114283;-84
2023/10/03 05:13:14;;;;;;;11.13;5.85;;;16.50;59.40;;;;;;5008718;28;114444;-82
2023/10/03 05:15:41;;;;;;;10.18;6.07;;;16.50;59.30;;;;;;5007743;28;118148;-83
2023/10/03 05:18:08;;;;;;;11.13;6.18;;;16.50;59.30;;;;;;5007580;28;114706;-82
2023/10/03 05:20:37;;;;;;;11.93;5.80;;;16.60;59.20;;;;;;5008601;28;114770;-82
2023/10/03 05:23:05;;;;;;;11.02;6.50;;;16.70;59.10;;;;;;5009223;28;114364;-83
2023/10/03 05:25:42;;;;;;;10.15;5.75;;;16.70;59.00;;;;;;5006204;28;118269;-82
2023/10/03 05:28:13;;;;;;;11.95;5.82;;;16.80;58.80;;;;;;5007338;28;114897;-82
2023/10/03 05:30:40;;;;;;;9.73;5.53;;;16.90;58.50;;;;;;4991103;28;114603;-83
2023/10/03 05:33:08;;;;;;;10.23;5.53;;;17.10;58.40;;;;;;5007811;28;114389;-83
2023/10/03 05:35:36;;;;;;;12.77;6.53;;;17.30;57.90;;;;;;5007390;28;115104;-81
2023/10/03 05:38:09;;;;;;;11.90;6.40;;;17.40;57.60;;;;;;5007529;28;116733;-82
2023/10/03 05:40:37;;;;;;;10.50;6.30;;;17.50;57.20;;;;;;5007330;28;114448;-84
2023/10/03 05:43:05;;;;;;;10.98;6.00;;;17.60;56.90;;;;;;5007906;28;114490;-83
2023/10/03 05:45:34;;;;;;;11.25;6.40;;;17.70;56.50;;;;;;4991147;28;115003;-83
2023/10/03 05:48:03;;;;;;;11.15;5.53;;;17.70;56.50;;;;;;5007277;28;115580;-83
2023/10/03 05:50:32;;;;;;;11.07;5.97;;;17.70;56.50;;;;;;5025647;28;114145;-84
2023/10/03 05:52:59;;;;;;;9.25;5.25;;;17.80;56.30;;;;;;4991593;28;114086;-83
2023/10/03 05:55:26;;;;;;;10.38;6.05;;;17.90;56.10;;;;;;5006674;28;114825;-82
2023/10/03 05:57:54;;;;;;;12.27;5.85;;;17.90;55.80;;;;;;4990537;28;114748;-82
2023/10/03 06:00:21;;;;;;;11.18;5.90;;;18.10;55.50;;;;;;4991195;28;114523;-83
2023/10/03 06:02:49;;;;;;;12.00;5.93;;;18.20;55.30;;;;;;5025686;28;114339;-82
2023/10/03 06:05:17;;;;;;;10.63;5.63;;;18.30;55.00;;;;;;4990612;28;115526;-82
2023/10/03 06:07:44;;;;;;;12.35;6.07;;;18.30;54.70;;;;;;5006607;28;115184;-83
2023/10/03 06:10:15;;;;;;;12.15;6.28;;;18.40;54.60;;;;;;5025539;28;114428;-83
2023/10/03 06:12:44;;;;;;;9.38;5.80;;;18.50;54.50;;;;;;5008203;28;114258;-83
2023/10/03 06:15:12;;;;;;;12.15;5.80;;;18.60;54.20;;;;;;4989908;28;115559;-82
2023/10/03 06:17:42;;;;;;;11.20;5.75;;;18.80;53.90;;;;;;5006926;28;114684;-84
2023/10/03 06:20:14;;;;;;;9.15;5.55;;;18.90;53.70;;;;;;4974665;28;114397;-83
2023/10/03 06:22:42;;;;;;;10.52;5.30;;;19.00;53.00;;;;;;5007402;28;114169;-82
2023/10/03 06:25:10;;;;;;;10.55;5.57;;;19.10;52.80;;;;;;5006423;28;115842;-81
2023/10/03 06:27:37;;;;;;;10.95;5.40;;;19.30;52.40;;;;;;5024276;28;114674;-83
2023/10/03 06:30:08;;;;;;;10.70;6.13;;;19.30;52.20;;;;;;5025378;28;114373;-84
2023/10/03 06:32:35;;;;;;;11.90;6.00;;;19.30;51.90;;;;;;5025023;28;114157;-82
2023/10/03 06:35:05;;;;;;;11.55;5.80;;;19.30;51.90;;;;;;4990010;28;114989;-83
2023/10/03 06:37:33;;;;;;;9.60;6.10;;;19.30;52.00;;;;;;5006399;28;114610;-82
2023/10/03 06:40:06;;;;;;;9.50;5.70;;;19.30;52.10;;;;;;5024944;28;114333;-83
2023/10/03 06:42:37;;;;;;;10.57;6.40;;;19.40;51.90;;;;;;5006864;28;114408;-83
2023/10/03 06:45:05;;;;;;;9.77;6.60;;;19.50;51.70;;;;;;5006070;28;117335;-81
2023/10/03 06:47:33;;;;;;;10.57;6.00;;;19.60;51.60;;;;;;5006722;28;114659;-81
2023/10/03 06:50:01;;;;;;;12.38;6.35;;;19.80;51.30;;;;;;5006951;28;114172;-82
2023/10/03 06:52:28;;;;;;;9.10;5.57;;;19.80;51.10;;;;;;4973380;28;114167;-83
2023/10/03 06:54:55;;;;;;;10.07;5.93;;;19.90;50.80;;;;;;5005776;28;115946;-82
2023/10/03 06:57:22;;;;;;;11.40;5.65;;;20.00;50.40;;;;;;5005848;28;114682;-84
2023/10/03 06:59:50;;;;;;;13.15;6.35;;;19.90;50.50;;;;;;5006627;28;114329;-83
2023/10/03 07:02:18;;;;;;;11.13;5.82;;;19.90;50.60;;;;;;4990895;28;114139;-83
2023/10/03 07:04:46;;;;;;;12.40;5.78;;;19.90;50.50;;;;;;5023953;28;114991;-82
2023/10/03 07:07:14;;;;;;;11.25;5.70;;;20.00;49.90;;;;;;5005830;28;114870;-84
2023/10/03 07:09:41;;;;;;;9.68;5.82;;;20.00;49.70;;;;;;5024206;28;114031;-82
2023/10/03 07:12:08;;;;;;;11.52;5.75;;;20.00;50.00;;;;;;5024382;28;114042;-82
2023/10/03 07:14:36;;;;;;;9.70;5.60;;;19.90;50.00;;;;;;5005578;28;115688;-82
2023/10/03 07:17:04;;;;;;;10.48;5.93;;;20.00;50.00;;;;;;5023602;28;114843;-83
2023/10/03 07:19:31;;;;;;;10.82;5.85;;;20.00;49.80;;;;;;5005639;28;115206;-82
2023/10/03 07:21:58;;;;;;;10.75;5.80;;;20.00;49.70;;;;;;5024089;28;114306;-83
2023/10/03 07:24:25;;;;;;;11.23;5.85;;;20.00;49.70;;;;;;5005874;28;114918;-84
2023/10/03 07:26:52;;;;;;;10.52;5.88;;;20.00;49.90;;;;;;5024233;28;115228;-82
2023/10/03 07:29:20;;;;;;;15.60;6.30;;;20.20;49.50;;;;;;5006154;28;114155;-82
2023/10/03 07:31:48;;;;;;;10.13;5.88;;;20.30;49.40;;;;;;5024142;28;115107;-84
2023/10/03 07:34:18;;;;;;;9.82;5.40;;;20.50;49.00;;;;;;5022948;28;114932;-82
2023/10/03 07:36:45;;;;;;;9.52;5.65;;;20.40;48.50;;;;;;5023349;28;115600;-83
2023/10/03 07:39:17;;;;;;;8.88;5.47;;;20.30;49.00;;;;;;5024208;28;114304;-83
2023/10/03 07:41:44;;;;;;;11.20;6.25;;;20.40;49.10;;;;;;5006204;28;114114;-82
2023/10/03 07:44:11;;;;;;;15.13;6.38;;;20.50;48.80;;;;;;5005183;28;114934;-82
2023/10/03 07:46:38;;;;;;;11.00;6.55;;;20.40;49.10;;;;;;5023297;28;114684;-82
2023/10/03 07:49:07;;;;;;;13.15;4.63;;;20.60;48.90;;;;;;4990011;28;114184;-83
2023/10/03 07:51:35;;;;;;;10.43;6.00;;;20.70;48.70;;;;;;4989801;28;114417;-83
2023/10/03 07:54:03;;;;;;;9.95;5.88;;;20.70;48.70;;;;;;4988628;28;116200;-83
2023/10/03 07:56:31;;;;;;;11.27;5.85;;;20.80;48.40;;;;;;5005014;28;114719;-84
2023/10/03 07:59:02;;;;;;;8.68;5.57;;;20.90;48.30;;;;;;5005139;28;114532;-84
2023/10/03 08:01:32;;;;;;;11.88;6.15;;;21.00;48.30;;;;;;5006817;28;114156;-82
2023/10/03 08:04:20;;;;;;;10.18;5.95;;;21.10;48.00;;;;;;5021888;28;115499;-84
2023/10/03 08:06:48;;;;;;;9.93;5.93;;;21.10;47.80;;;;;;5005270;28;114967;-83
2023/10/03 08:09:16;;;;;;;10.90;6.07;;;21.20;47.70;;;;;;5023717;28;114203;-83
2023/10/03 08:11:46;;;;;;;10.20;6.18;;;21.20;47.90;;;;;;5012243;28;114175;-82
2023/10/03 08:14:17;;;;;;;11.50;5.95;;;21.30;47.70;;;;;;5011284;28;115997;-82
2023/10/03 08:16:45;;;;;;;12.15;6.53;;;21.30;47.70;;;;;;5023222;28;114885;-84
2023/10/03 08:19:26;;;;;;;10.57;5.82;;;21.30;47.60;;;;;;5005142;28;114294;-85
2023/10/03 08:21:54;;;;;;;12.55;6.70;;;21.30;47.50;;;;;;5006169;28;114387;-83
2023/10/03 08:24:25;;;;;;;11.23;6.15;;;21.30;47.40;;;;;;4994603;28;114909;-83
2023/10/03 08:27:00;;;;;;;11.05;6.05;;;21.40;47.90;;;;;;4989881;28;117718;-82
2023/10/03 08:29:28;;;;;;;11.05;6.07;;;21.50;47.90;;;;;;5005585;28;114310;-82
2023/10/03 08:32:05;;;;;;;12.75;6.40;;;21.60;47.10;;;;;;5005229;28;114518;-88
2023/10/03 08:34:33;;;;;;;11.73;5.88;;;21.50;47.40;;;;;;4959790;28;118927;-84
2023/10/03 08:37:00;;;;;;;10.73;6.25;;;21.60;47.50;;;;;;4928254;28;115777;-83
2023/10/03 08:39:34;;;;;;;12.75;6.43;;;21.70;47.50;;;;;;4945044;28;114380;-82
2023/10/03 08:42:17;;;;;;;11.55;6.75;;;21.70;47.60;;;;;;4946588;28;114290;-83
2023/10/03 08:44:51;;;;;;;12.05;6.03;;;21.80;47.40;;;;;;4944470;28;115146;-84
2023/10/03 08:47:33;;;;;;;13.18;6.70;;;21.80;47.30;;;;;;4955908;28;114913;-83
2023/10/03 08:50:10;;;;;;;12.52;6.50;;;21.80;47.30;;;;;;4963941;28;114490;-82
2023/10/03 08:52:47;;;;;;;12.00;7.07;;;21.90;47.40;;;;;;4961063;28;114521;-85
2023/10/03 08:55:19;;;;;;;14.05;7.10;;;22.00;47.10;;;;;;4929992;28;115455;-83
2023/10/03 08:57:48;;;;;;;11.98;6.97;;;22.00;47.00;;;;;;4960875;28;115140;-84
2023/10/03 09:00:16;;;;;;;9.88;5.80;;;22.10;47.00;;;;;;4961391;28;114235;-83
2023/10/03 09:02:46;;;;;;;13.13;6.43;;;22.20;46.80;;;;;;4944909;28;114399;-82
2023/10/03 09:05:20;;;;;;;14.18;7.20;;;22.30;46.60;;;;;;4981602;28;115615;-85
2023/10/03 09:07:47;;;;;;;15.68;6.82;;;22.30;46.50;;;;;;4988358;28;114643;-85
2023/10/03 09:10:22;;;;;;;9.75;6.47;;;22.30;46.60;;;;;;5005269;28;114274;-85
2023/10/03 09:13:03;;;;;;;14.13;6.88;;;22.40;46.40;;;;;;5023017;28;114491;-85
2023/10/03 09:15:41;;;;;;;11.75;6.75;;;22.40;46.70;;;;;;5006965;28;114937;-82
2023/10/03 09:18:15;;;;;;;14.15;7.00;;;22.50;46.50;;;;;;5007971;28;116686;-81
2023/10/03 09:20:42;;;;;;;11.98;6.72;;;22.60;46.90;;;;;;5009397;28;114195;-83
2023/10/03 09:23:14;;;;;;;13.20;6.90;;;22.80;46.40;;;;;;5026400;28;114355;-82
2023/10/03 09:25:42;;;;;;;12.20;7.55;;;22.80;46.40;;;;;;4990758;28;116728;-84
2023/10/03 09:28:11;;;;;;;14.13;7.95;;;22.80;46.00;;;;;;5025410;28;115187;-83
2023/10/03 09:30:39;;;;;;;14.43;7.65;;;22.90;46.40;;;;;;5026292;28;114095;-83
2023/10/03 09:33:09;;;;;;;16.33;8.05;;;23.00;46.00;;;;;;5008146;28;114374;-84
2023/10/03 09:35:39;;;;;;;15.10;8.15;;;23.00;45.70;;;;;;5007291;28;115404;-85
2023/10/03 09:38:09;;;;;;;13.13;7.78;;;23.00;45.70;;;;;;5007999;28;114646;-85
2023/10/03 09:40:49;;;;;;;14.50;7.50;;;23.00;45.40;;;;;;5025862;28;114101;-84
2023/10/03 09:43:27;;;;;;;13.70;8.07;;;23.00;45.60;;;;;;5025961;28;114368;-85
2023/10/03 09:45:57;;;;;;;16.10;7.95;;;23.00;45.60;;;;;;5008454;28;114920;-84
2023/10/03 09:48:24;;;;;;;16.17;7.80;;;23.10;45.80;;;;;;5007656;28;114698;-83
2023/10/03 09:50:53;;;;;;;13.63;7.53;;;23.30;45.10;;;;;;4991807;28;114462;-84
2023/10/03 09:53:27;;;;;;;13.27;8.13;;;23.30;45.20;;;;;;5007820;28;114162;-83
2023/10/03 09:56:00;;;;;;;16.60;8.07;;;23.50;45.10;;;;;;5008158;28;115358;-82
2023/10/03 09:58:33;;;;;;;13.82;7.75;;;23.60;44.60;;;;;;4991052;28;114718;-83
2023/10/03 10:01:00;;;;;;;16.58;7.75;;;23.70;44.60;;;;;;4976225;28;114177;-84
2023/10/03 10:03:33;;;;;;;14.75;7.53;;;23.80;44.40;;;;;;5008070;28;114446;-84
2023/10/03 10:06:37;;;;;;;13.77;7.45;;;23.80;44.50;;;;;;4990638;28;115059;-84
2023/10/03 10:09:23;;;;;;;15.98;8.38;;;23.80;44.40;;;;;;4989074;28;117245;-83
2023/10/03 10:12:13;;;;;;;16.55;8.43;;;23.80;44.30;;;;;;5010211;28;114022;-84
2023/10/03 10:15:02;;;;;;;16.50;8.32;;;23.70;44.40;;;;;;5026056;28;114247;-84
2023/10/03 10:17:46;;;;;;;19.27;8.73;;;23.80;44.50;;;;;;5024511;28;116283;-83
2023/10/03 10:20:33;;;;;;;16.47;8.37;;;23.80;44.50;;;;;;5002969;28;117174;-84
2023/10/03 10:23:06;;;;;;;14.80;8.63;;;23.90;44.10;;;;;;4989081;28;114490;-85
2023/10/03 10:25:42;;;;;;;17.55;9.18;;;23.90;44.20;;;;;;5005516;28;114114;-83
2023/10/03 10:28:11;;;;;;;16.08;8.68;;;24.10;44.10;;;;;;4984938;28;118208;-82
2023/10/03 10:30:44;;;;;;;16.30;8.60;;;24.10;43.70;;;;;;4985967;28;117469;-83
2023/10/03 10:33:16;;;;;;;15.43;8.10;;;24.10;43.60;;;;;;4986888;28;114320;-85
2023/10/03 10:35:50;;;;;;;14.48;8.27;;;24.20;43.50;;;;;;5008595;28;114244;-82
2023/10/03 10:38:17;;;;;;;;;;;24.20;43.80;;;;;;4988772;28;114651;-84
2023/10/03 10:41:06;;;;;;;;;;;24.20;44.70;;;;;;5005466;28;114869;-84
2023/10/03 10:43:34;;;;;;;;;;;24.20;44.90;;;;;;5004522;28;114279;-84
2023/10/03 10:46:29;;;;;;;;;;;24.10;43.70;;;;;;5005631;28;114203;-84
2023/10/03 10:48:56;;;;;;;;;;;24.10;44.70;;;;;;5003176;28;115536;-83
2023/10/03 10:51:25;;;;;;;;;;;24.10;44.90;;;;;;5007687;28;115238;-83
2023/10/03 10:53:53;;;;;;;;;;;24.10;44.60;;;;;;5006713;28;114244;-85
2023/10/03 10:56:22;;;;;;;;;;;24.10;44.80;;;;;;5004118;28;114299;-83
2023/10/03 10:59:10;;;;;;;;;;;24.10;44.70;;;;;;5003267;28;115076;-83
2023/10/03 11:01:40;;;;;;;;;;;24.20;44.80;;;;;;5003656;28;114665;-85
2023/10/03 11:04:21;;;;;;;;;;;24.20;44.20;;;;;;5004967;28;114181;-85
2023/10/03 11:06:52;;;;;;;;;;;24.10;44.20;;;;;;5005538;28;114380;-84
2023/10/03 11:09:23;;;;;;;;;;;24.10;44.40;;;;;;5004287;28;114936;-84
2023/10/03 11:11:53;;;;;;;;;;;24.10;44.70;;;;;;5004172;28;114597;-84
2023/10/03 11:14:25;;;;;;;;;;;24.20;44.50;;;;;;5004835;28;114384;-84
2023/10/03 11:16:52;;;;;;;;;;;24.20;44.40;;;;;;5004316;28;114298;-85
2023/10/03 11:19:19;;;;;;;;;;;24.20;43.90;;;;;;4969039;28;118528;-84
2023/10/03 11:21:46;;;;;;;;;;;24.10;43.50;;;;;;4986371;28;115369;-84
2023/10/03 11:24:13;;;;;;;;;;;24.00;43.50;;;;;;4986205;28;114114;-83
2023/10/03 11:26:45;;;;;;;;;;;24.00;43.30;;;;;;5004677;28;114320;-84
2023/10/03 11:29:14;;;;;;;;;;;24.10;43.90;;;;;;5003952;28;114046;-84
2023/10/03 11:31:42;;;;;;;;;;;24.10;44.00;;;;;;5003952;28;114633;-84
2023/10/03 11:34:09;;;;;;;;;;;24.20;43.80;;;;;;5004256;28;114207;-84
2023/10/03 11:36:40;;;;;;;;;;;24.20;43.80;;;;;;5004724;28;114285;-83
2023/10/03 11:39:07;;;;;;;;;;;24.20;43.10;;;;;;5001672;28;117251;-84
2023/10/03 11:41:37;;;;;;;;;;;24.10;43.10;;;;;;5002786;28;114673;-83
2023/10/03 11:44:06;;;;;;;;;;;24.10;43.30;;;;;;4954479;28;114539;-83
2023/10/03 11:46:37;;;;;;;;;;;24.10;43.40;;;;;;5003265;28;114248;-84
2023/10/03 11:49:04;;;;;;;;;;;24.10;43.50;;;;;;5002973;28;114904;-85
2023/10/03 11:51:33;;;;;;;;;;;24.20;43.50;;;;;;4985966;28;114850;-83
2023/10/03 11:54:00;;;;;;;;;;;24.20;43.30;;;;;;5004157;28;114033;-83
2023/10/03 11:56:27;;;;;;;;;;;24.20;43.20;;;;;;5004314;28;114391;-84
2023/10/03 11:58:54;;;;;;;;;;;24.30;42.90;;;;;;5003457;28;115409;-83
2023/10/03 12:01:23;;;;;;;;;;;24.30;42.90;;;;;;5003605;28;115225;-85
2023/10/03 12:03:53;;;;;;;;;;;24.30;42.50;;;;;;4986539;28;114050;-84
2023/10/03 12:06:23;;;;;;;;;;;24.20;42.90;;;;;;5003493;28;114440;-83
2023/10/03 12:08:51;;;;;;;;;;;24.20;41.90;;;;;;5002599;28;117985;-82
2023/10/03 12:11:20;;;;;;;;;;;24.10;42.40;;;;;;5002254;28;117788;-83
2023/10/03 12:13:47;;;;;;;;;;;24.10;42.90;;;;;;5002078;28;114302;-85
2023/10/03 12:16:15;;;;;;;;;;;24.10;42.80;;;;;;4953544;28;114284;-85
2023/10/03 12:18:43;;;;;;;;;;;24.10;42.60;;;;;;5001879;28;115117;-83
2023/10/03 12:21:11;;;;;;;;;;;24.10;42.70;;;;;;4969189;28;114739;-82
2023/10/03 12:23:49;;;;;;;;;;;24.10;42.70;;;;;;4987883;28;114212;-84
2023/10/03 12:26:16;;;;;;;;;;;24.10;42.90;;;;;;5003289;28;114429;-83
2023/10/03 12:28:53;;;;;;;;;;;24.00;42.90;;;;;;5004509;28;114869;-83
2023/10/03 12:31:27;;;;;;;;;;;24.10;42.10;;;;;;5006172;28;114702;-82
2023/10/03 12:34:01;;;;;;;;;;;24.10;42.40;;;;;;5002652;28;114297;-82
2023/10/03 12:36:29;;;;;;;;;;;24.10;42.50;;;;;;5004027;28;114138;-83
2023/10/03 12:38:56;;;;;;;;;;;24.10;42.70;;;;;;5002279;28;115459;-83
2023/10/03 12:41:29;;;;;;;;;;;24.10;42.90;;;;;;5001743;28;117850;-82
2023/10/03 12:43:56;;;;;;;;;;;24.10;42.90;;;;;;5003505;28;114469;-82
2023/10/03 12:46:23;;;;;;;;;;;24.10;43.00;;;;;;5003653;28;114164;-83
2023/10/03 12:48:51;;;;;;;;;;;24.20;42.90;;;;;;5001620;28;115345;-82
2023/10/03 12:51:19;;;;;;;;;;;24.10;42.40;;;;;;5003506;28;117740;-83
2023/10/03 12:53:46;;;;;;;;;;;24.10;42.60;;;;;;4988760;28;114314;-82
2023/10/03 12:56:13;;;;;;;;;;;24.00;42.80;;;;;;5007378;28;114162;-83
2023/10/03 12:58:42;;;;;;;;;;;23.90;43.00;;;;;;5005817;28;115448;-84
2023/10/03 13:01:11;;;;;;;;;;;23.90;43.00;;;;;;5006202;28;114498;-84
2023/10/03 13:03:39;;;;;;;;;;;23.80;42.60;;;;;;4987688;28;114358;-84
2023/10/03 13:06:08;;;;;;;;;;;23.80;43.00;;;;;;4972803;28;114397;-85